Long Beach, California
Current Conditions -  °F | °C
As of 4:53 PM on Thursday 27 Nov 2014 (Local Time) from KLGB Reporting Station
Clear Clear  
Wind Chill: 76°   Ceiling: Unl
Heat Index: 76°   Visibility: 10mi
Dew Point: 31°   Wind: 8mph
Humidity: 19%   Direction: 300°WNW
Pressure: 30"   Gusts: NA
Location:  33.77°N, 118.19°W
Report Text: KLGB 280053Z 30007KT 10SM CLR 24/M01 A3000 RMK AO2 SLP157 T02441006
Loading
Personal Weather Stations






























Interactive Weather Map New forecast layout! Learn more

10-Day Weather Forecast

Advertisements
Track Severe Weather on mobile